Time;durP1;ratioP1;P1;durP2;ratioP2;P2;SDS_P1;SDS_P2;PMS_P1;PMS_P2;Temp;Humidity;BMP_temperature;BMP_pressure;BME280_temperature;BME280_humidity;BME280_pressure;Samples;Min_cycle;Max_cycle;Signal;HPM_P1;HPM_P2
2023/09/16 00:01:21;;;;;;;4.83;4.33;;;;;;;;;;5012681;28;20233;-89
2023/09/16 00:03:48;;;;;;;5.53;4.27;;;;;;;;;;4980661;28;20231;-89
2023/09/16 00:06:15;;;;;;;4.67;3.90;;;;;;;;;;5034884;28;20244;-89
2023/09/16 00:08:43;;;;;;;7.17;4.10;;;;;;;;;;5013128;28;20238;-89
2023/09/16 00:11:10;;;;;;;6.03;4.40;;;;;;;;;;5073578;28;20233;-89
2023/09/16 00:13:38;;;;;;;5.17;4.63;;;;;;;;;;5076883;28;20229;-89
2023/09/16 00:16:06;;;;;;;4.93;4.53;;;;;;;;;;4991638;28;20229;-88
2023/09/16 00:18:33;;;;;;;4.67;4.27;;;;;;;;;;5052509;28;20232;-89
2023/09/16 00:21:00;;;;;;;5.80;4.40;;;;;;;;;;4982239;28;20216;-89
2023/09/16 00:23:28;;;;;;;4.97;4.00;;;;;;;;;;4974704;28;20637;-89
2023/09/16 00:25:55;;;;;;;7.60;4.70;;;;;;;;;;4973653;28;20593;-89
2023/09/16 00:28:25;;;;;;;5.73;4.30;;;;;;;;;;4994951;28;20214;-88
2023/09/16 00:30:52;;;;;;;6.43;4.30;;;;;;;;;;5074850;28;20259;-89
2023/09/16 00:33:19;;;;;;;7.97;4.70;;;;;;;;;;5059882;28;20556;-89
2023/09/16 00:35:46;;;;;;;4.33;3.93;;;;;;;;;;5023446;28;20239;-90
2023/09/16 00:38:15;;;;;;;5.60;5.10;;;;;;;;;;4985873;28;20239;-89
2023/09/16 00:40:42;;;;;;;4.47;4.07;;;;;;;;;;4986774;28;20301;-89
2023/09/16 00:43:09;;;;;;;4.73;4.33;;;;;;;;;;5029289;28;20197;-89
2023/09/16 00:45:38;;;;;;;4.67;4.27;;;;;;;;;;5017345;28;20240;-89
2023/09/16 00:48:05;;;;;;;4.50;4.10;;;;;;;;;;5027198;28;20221;-89
2023/09/16 00:50:33;;;;;;;4.87;4.37;;;;;;;;;;5075589;28;20239;-89
2023/09/16 00:53:00;;;;;;;6.07;4.37;;;;;;;;;;5075808;28;20197;-89
2023/09/16 00:55:28;;;;;;;5.97;4.33;;;;;;;;;;5051337;28;20252;-89
2023/09/16 00:57:56;;;;;;;7.90;4.90;;;;;;;;;;4974607;28;20243;-89
2023/09/16 01:00:26;;;;;;;8.10;4.70;;;;;;;;;;4974101;28;20242;-89
2023/09/16 01:02:55;;;;;;;6.47;4.03;;;;;;;;;;4974494;28;20304;-88
2023/09/16 01:05:22;;;;;;;6.37;4.50;;;;;;;;;;4966324;28;20236;-88
2023/09/16 01:07:50;;;;;;;4.93;4.40;;;;;;;;;;5012869;28;20229;-89
2023/09/16 01:10:18;;;;;;;4.73;3.83;;;;;;;;;;4991203;28;20225;-90
2023/09/16 01:12:45;;;;;;;5.33;4.30;;;;;;;;;;4997352;28;20624;-88
2023/09/16 01:15:14;;;;;;;4.33;3.93;;;;;;;;;;5070853;28;20233;-89
2023/09/16 01:17:44;;;;;;;6.03;4.07;;;;;;;;;;5000563;28;20227;-89
2023/09/16 01:20:15;;;;;;;4.40;4.00;;;;;;;;;;4973610;28;20233;-89
2023/09/16 01:22:45;;;;;;;5.10;4.20;;;;;;;;;;5015937;28;20292;-90
2023/09/16 01:25:14;;;;;;;5.13;4.37;;;;;;;;;;4973370;28;20239;-89
2023/09/16 01:27:41;;;;;;;5.53;4.30;;;;;;;;;;4974053;28;20245;-89
2023/09/16 01:30:09;;;;;;;5.10;4.50;;;;;;;;;;5025189;28;20221;-89
2023/09/16 01:32:41;;;;;;;4.90;4.20;;;;;;;;;;5033575;28;20284;-89
2023/09/16 01:35:10;;;;;;;5.73;4.43;;;;;;;;;;5025659;28;20256;-89
2023/09/16 01:37:39;;;;;;;5.47;4.97;;;;;;;;;;5025311;22;20216;-87
2023/09/16 01:40:10;;;;;;;9.00;4.70;;;;;;;;;;5010492;28;20243;-86
2023/09/16 01:42:39;;;;;;;5.13;4.23;;;;;;;;;;5014549;28;20238;-87
2023/09/16 01:45:07;;;;;;;5.17;4.67;;;;;;;;;;5009881;28;20761;-87
2023/09/16 01:47:34;;;;;;;5.00;4.00;;;;;;;;;;5010353;28;20227;-87
2023/09/16 01:50:01;;;;;;;4.50;4.10;;;;;;;;;;5008784;28;20235;-87
2023/09/16 01:52:28;;;;;;;5.07;4.53;;;;;;;;;;5021385;28;20205;-87
2023/09/16 01:54:55;;;;;;;5.10;4.67;;;;;;;;;;5017026;28;20248;-87
2023/09/16 01:57:22;;;;;;;4.57;4.17;;;;;;;;;;5009595;28;20208;-86
2023/09/16 01:59:51;;;;;;;5.80;4.43;;;;;;;;;;5012778;28;20234;-87
2023/09/16 02:02:18;;;;;;;4.83;4.43;;;;;;;;;;5046266;28;20297;-87
2023/09/16 02:04:45;;;;;;;4.70;4.30;;;;;;;;;;5015963;28;20228;-87
2023/09/16 02:07:12;;;;;;;5.27;4.57;;;;;;;;;;5001594;28;20231;-87
2023/09/16 02:09:39;;;;;;;4.40;4.00;;;;;;;;;;5050636;27;20239;-88
2023/09/16 02:12:06;;;;;;;5.73;4.17;;;;;;;;;;5003373;28;20216;-87
2023/09/16 02:14:37;;;;;;;5.03;4.53;;;;;;;;;;4996908;28;20231;-87
2023/09/16 02:17:07;;;;;;;4.93;4.47;;;;;;;;;;5081093;28;20205;-86
2023/09/16 02:19:34;;;;;;;4.63;4.23;;;;;;;;;;5050559;28;20709;-87
2023/09/16 02:22:01;;;;;;;5.10;4.60;;;;;;;;;;5019134;28;20561;-87
2023/09/16 02:24:28;;;;;;;4.47;3.90;;;;;;;;;;5016185;27;20204;-87
2023/09/16 02:26:55;;;;;;;6.33;4.73;;;;;;;;;;5014596;28;20215;-87
2023/09/16 02:29:22;;;;;;;5.13;4.60;;;;;;;;;;4993267;28;20227;-87
2023/09/16 02:31:50;;;;;;;5.87;4.20;;;;;;;;;;5038830;28;20209;-87
2023/09/16 02:34:19;;;;;;;6.37;4.20;;;;;;;;;;5040567;28;20670;-87
2023/09/16 02:36:46;;;;;;;6.90;4.20;;;;;;;;;;5027328;28;20196;-87
2023/09/16 02:39:13;;;;;;;4.23;3.83;;;;;;;;;;5019009;28;20243;-87
2023/09/16 02:41:40;;;;;;;5.67;4.33;;;;;;;;;;5000071;28;20207;-87
2023/09/16 02:44:08;;;;;;;5.73;4.47;;;;;;;;;;5004333;28;20246;-87
2023/09/16 02:46:35;;;;;;;4.47;4.03;;;;;;;;;;5006427;28;20223;-87
2023/09/16 02:49:03;;;;;;;4.60;4.20;;;;;;;;;;4997637;28;20303;-88
2023/09/16 02:51:32;;;;;;;8.60;4.30;;;;;;;;;;4993549;28;20242;-87
2023/09/16 02:54:00;;;;;;;4.50;4.10;;;;;;;;;;5078857;28;20197;-87
2023/09/16 02:56:27;;;;;;;8.27;4.57;;;;;;;;;;4985612;28;20311;-87
2023/09/16 02:58:54;;;;;;;4.47;4.07;;;;;;;;;;5031874;28;20220;-87
2023/09/16 03:01:21;;;;;;;5.73;4.27;;;;;;;;;;5053282;27;20225;-88
2023/09/16 03:03:48;;;;;;;4.47;4.07;;;;;;;;;;5062154;28;20236;-87
2023/09/16 03:06:15;;;;;;;4.07;3.67;;;;;;;;;;5007913;28;20232;-86
2023/09/16 03:08:43;;;;;;;4.37;3.97;;;;;;;;;;5041292;28;20227;-87
2023/09/16 03:11:10;;;;;;;6.73;4.57;;;;;;;;;;4994948;28;20750;-87
2023/09/16 03:13:38;;;;;;;6.87;4.30;;;;;;;;;;5019760;28;20209;-86
2023/09/16 03:16:15;;;;;;;5.30;4.03;;;;;;;;;;5007509;28;20224;-87
2023/09/16 03:18:43;;;;;;;4.33;3.93;;;;;;;;;;5001296;28;20224;-87
2023/09/16 03:21:10;;;;;;;5.70;4.17;;;;;;;;;;5042209;28;20228;-87
2023/09/16 03:23:37;;;;;;;5.30;4.10;;;;;;;;;;5053528;28;20283;-87
2023/09/16 03:26:06;;;;;;;4.43;3.77;;;;;;;;;;5015745;28;20239;-86
2023/09/16 03:28:33;;;;;;;4.20;3.80;;;;;;;;;;5058342;28;20281;-85
2023/09/16 03:31:00;;;;;;;4.43;4.00;;;;;;;;;;5010160;28;20232;-87
2023/09/16 03:33:27;;;;;;;4.93;3.97;;;;;;;;;;5031349;28;20275;-86
2023/09/16 03:35:54;;;;;;;4.70;3.70;;;;;;;;;;4997118;28;20232;-87
2023/09/16 03:38:21;;;;;;;4.20;3.70;;;;;;;;;;5050042;28;20735;-87
2023/09/16 03:40:50;;;;;;;4.10;3.63;;;;;;;;;;5048859;28;20295;-87
2023/09/16 03:43:19;;;;;;;5.87;3.30;;;;;;;;;;5042493;28;20208;-87
2023/09/16 03:45:46;;;;;;;6.23;3.77;;;;;;;;;;5017716;28;20228;-87
2023/09/16 03:48:13;;;;;;;5.57;3.80;;;;;;;;;;5011644;28;20228;-87
2023/09/16 03:50:40;;;;;;;4.37;3.87;;;;;;;;;;5064663;27;20254;-87
2023/09/16 03:53:07;;;;;;;4.10;3.70;;;;;;;;;;5058040;28;20231;-87
2023/09/16 03:55:35;;;;;;;5.43;4.17;;;;;;;;;;5000693;28;20310;-87
2023/09/16 03:58:02;;;;;;;4.07;3.70;;;;;;;;;;5042998;28;20224;-87
2023/09/16 04:00:31;;;;;;;4.60;3.70;;;;;;;;;;5052359;28;20311;-87
2023/09/16 04:02:58;;;;;;;4.33;3.60;;;;;;;;;;5056607;28;20212;-87
2023/09/16 04:05:25;;;;;;;4.00;3.70;;;;;;;;;;5015454;28;20353;-88
2023/09/16 04:07:53;;;;;;;4.10;3.70;;;;;;;;;;5026316;28;20342;-87
2023/09/16 04:10:20;;;;;;;6.00;3.80;;;;;;;;;;5034889;28;20232;-87
2023/09/16 04:12:47;;;;;;;4.47;4.03;;;;;;;;;;5035296;28;20207;-87
2023/09/16 04:15:15;;;;;;;4.97;3.87;;;;;;;;;;5044504;27;20232;-87
2023/09/16 04:17:43;;;;;;;5.73;4.40;;;;;;;;;;5033053;28;20262;-87
2023/09/16 04:20:11;;;;;;;4.10;3.70;;;;;;;;;;5048951;28;20731;-88
2023/09/16 04:22:38;;;;;;;5.20;4.03;;;;;;;;;;5056525;28;20193;-87
2023/09/16 04:25:05;;;;;;;3.77;3.33;;;;;;;;;;5052468;27;20228;-87
2023/09/16 04:27:35;;;;;;;4.20;3.80;;;;;;;;;;5034818;28;20223;-87
2023/09/16 04:30:03;;;;;;;5.00;4.17;;;;;;;;;;5033103;27;20240;-87
2023/09/16 04:32:30;;;;;;;4.93;4.00;;;;;;;;;;5013135;28;20204;-87
2023/09/16 04:34:59;;;;;;;4.80;4.30;;;;;;;;;;5094872;27;20236;-92
2023/09/16 04:37:26;;;;;;;6.10;4.30;;;;;;;;;;5095194;28;20712;-91
2023/09/16 04:39:53;;;;;;;3.90;3.57;;;;;;;;;;5094871;27;20232;-92
2023/09/16 04:42:20;;;;;;;5.00;4.00;;;;;;;;;;5095211;28;20200;-91
2023/09/16 04:44:48;;;;;;;7.47;6.23;;;;;;;;;;5095287;27;20234;-92
2023/09/16 04:47:15;;;;;;;7.90;5.43;;;;;;;;;;5095050;28;20311;-92
2023/09/16 04:49:43;;;;;;;6.30;5.10;;;;;;;;;;5044566;28;20265;-87
2023/09/16 04:52:11;;;;;;;4.40;4.00;;;;;;;;;;5042587;28;20204;-87
2023/09/16 04:54:38;;;;;;;4.97;4.00;;;;;;;;;;4999863;28;20232;-87
2023/09/16 04:57:05;;;;;;;4.63;3.90;;;;;;;;;;5035127;28;20215;-87
2023/09/16 04:59:33;;;;;;;4.40;4.00;;;;;;;;;;5037694;28;20246;-87
2023/09/16 05:02:00;;;;;;;4.47;4.07;;;;;;;;;;5004392;28;20204;-87
2023/09/16 05:04:27;;;;;;;17.70;3.90;;;;;;;;;;5033300;28;20253;-86
2023/09/16 05:06:54;;;;;;;4.20;3.80;;;;;;;;;;5025068;28;20236;-87
2023/09/16 05:09:23;;;;;;;5.00;4.53;;;;;;;;;;5008861;27;20232;-87
2023/09/16 05:11:50;;;;;;;6.60;4.67;;;;;;;;;;5035503;28;20241;-87
2023/09/16 05:14:17;;;;;;;7.27;4.03;;;;;;;;;;5002275;28;20211;-86
2023/09/16 05:16:44;;;;;;;4.70;4.00;;;;;;;;;;4998137;28;20215;-91
2023/09/16 05:19:11;;;;;;;4.20;3.80;;;;;;;;;;4991762;28;20231;-92
2023/09/16 05:21:38;;;;;;;9.47;4.33;;;;;;;;;;4992329;28;20208;-93
2023/09/16 05:24:06;;;;;;;4.83;3.87;;;;;;;;;;4992402;28;20256;-94
2023/09/16 05:26:34;;;;;;;6.37;4.30;;;;;;;;;;4992171;28;20240;-93
2023/09/16 05:29:01;;;;;;;4.80;4.10;;;;;;;;;;4996658;28;20232;-93
2023/09/16 05:31:28;;;;;;;5.50;3.73;;;;;;;;;;4991268;28;20224;-89
2023/09/16 05:33:55;;;;;;;4.80;3.93;;;;;;;;;;4992134;28;20211;-88
2023/09/16 05:36:23;;;;;;;4.57;3.90;;;;;;;;;;4991500;28;20239;-88
2023/09/16 05:38:51;;;;;;;5.30;4.00;;;;;;;;;;5005305;28;20328;-88
2023/09/16 05:41:18;;;;;;;4.93;3.80;;;;;;;;;;4995210;28;20235;-89
2023/09/16 05:43:46;;;;;;;4.87;4.17;;;;;;;;;;4994036;28;20215;-89
2023/09/16 05:46:13;;;;;;;5.20;4.67;;;;;;;;;;4994010;28;20236;-89
2023/09/16 05:48:41;;;;;;;5.23;4.67;;;;;;;;;;4993830;28;20236;-88
2023/09/16 05:51:10;;;;;;;5.97;4.53;;;;;;;;;;4992585;28;20729;-88
2023/09/16 05:53:37;;;;;;;6.83;4.63;;;;;;;;;;4997481;28;20212;-88
2023/09/16 05:56:05;;;;;;;8.20;5.13;;;;;;;;;;5011295;28;20246;-88
2023/09/16 05:58:32;;;;;;;5.67;4.60;;;;;;;;;;5011345;28;20223;-88
2023/09/16 06:01:00;;;;;;;6.27;4.40;;;;;;;;;;5010705;28;20610;-89
2023/09/16 06:03:27;;;;;;;8.57;4.40;;;;;;;;;;5000772;28;20207;-93
2023/09/16 06:05:59;;;;;;;6.07;4.90;;;;;;;;;;5064982;28;20286;-90
2023/09/16 06:08:26;;;;;;;4.90;4.43;;;;;;;;;;5005693;28;20227;-90
2023/09/16 06:10:53;;;;;;;6.83;5.10;;;;;;;;;;4991636;28;20236;-90
2023/09/16 06:13:20;;;;;;;5.43;4.60;;;;;;;;;;5028664;28;20207;-89
2023/09/16 06:15:47;;;;;;;7.53;4.63;;;;;;;;;;5033548;28;20228;-91
2023/09/16 06:18:16;;;;;;;6.33;4.83;;;;;;;;;;4996316;28;20224;-92
2023/09/16 06:20:43;;;;;;;7.60;4.60;;;;;;;;;;4996223;28;20235;-91
2023/09/16 06:23:10;;;;;;;5.93;5.10;;;;;;;;;;4994557;28;20204;-92
2023/09/16 06:25:38;;;;;;;6.03;5.40;;;;;;;;;;4991247;28;20250;-92
2023/09/16 06:28:05;;;;;;;7.60;5.60;;;;;;;;;;4992919;28;20239;-92
2023/09/16 06:30:32;;;;;;;9.17;5.17;;;;;;;;;;4993314;28;20607;-92
2023/09/16 06:33:00;;;;;;;5.67;5.13;;;;;;;;;;4993306;28;20211;-92
2023/09/16 06:35:28;;;;;;;6.17;5.57;;;;;;;;;;4992520;28;20330;-92
2023/09/16 06:37:55;;;;;;;5.30;4.80;;;;;;;;;;4993377;28;20236;-92
2023/09/16 06:40:22;;;;;;;6.30;5.33;;;;;;;;;;4993358;28;20243;-92
2023/09/16 06:42:49;;;;;;;11.77;5.43;;;;;;;;;;5062857;28;20600;-92
2023/09/16 06:45:16;;;;;;;7.83;5.17;;;;;;;;;;5093503;27;20244;-91
2023/09/16 06:47:44;;;;;;;6.97;5.20;;;;;;;;;;4992340;28;20233;-90
2023/09/16 06:50:12;;;;;;;7.00;5.97;;;;;;;;;;4999126;28;20322;-91
2023/09/16 06:52:47;;;;;;;6.77;5.60;;;;;;;;;;5038457;28;20277;-91
2023/09/16 06:55:23;;;;;;;6.77;5.47;;;;;;;;;;5000046;28;20287;-92
2023/09/16 06:57:50;;;;;;;6.83;5.77;;;;;;;;;;5033992;28;20705;-91
2023/09/16 07:00:18;;;;;;;9.87;5.90;;;;;;;;;;4991248;28;20236;-91
2023/09/16 07:02:45;;;;;;;8.13;5.77;;;;;;;;;;4992128;28;20204;-91
2023/09/16 07:05:14;;;;;;;11.60;6.73;;;;;;;;;;5001996;28;20235;-91
2023/09/16 07:07:49;;;;;;;8.13;6.00;;;;;;;;;;4986847;28;20231;-92
2023/09/16 07:10:16;;;;;;;8.20;5.70;;;;;;;;;;4993177;28;20605;-91
2023/09/16 07:12:43;;;;;;;7.30;5.73;;;;;;;;;;4997276;28;20211;-88
2023/09/16 07:15:11;;;;;;;7.80;6.40;;;;;;;;;;4985334;28;20270;-91
2023/09/16 07:17:38;;;;;;;6.60;5.37;;;;;;;;;;4996868;28;20227;-92
2023/09/16 07:20:06;;;;;;;5.40;4.90;;;;;;;;;;5005836;28;20314;-93
2023/09/16 07:22:33;;;;;;;5.13;4.73;;;;;;;;;;5012871;28;20208;-94
2023/09/16 07:25:01;;;;;;;6.60;5.03;;;;;;;;;;4993353;28;20228;-94
2023/09/16 07:27:28;;;;;;;7.07;4.90;;;;;;;;;;4995236;28;20232;-94
2023/09/16 07:29:55;;;;;;;6.30;4.73;;;;;;;;;;5002468;28;20228;-94
2023/09/16 07:32:22;;;;;;;5.00;4.47;;;;;;;;;;5048681;28;20188;-93
2023/09/16 07:34:50;;;;;;;5.57;4.40;;;;;;;;;;4998613;28;20243;-94
2023/09/16 07:37:17;;;;;;;7.57;4.63;;;;;;;;;;4996419;28;20204;-93
2023/09/16 07:39:45;;;;;;;4.80;4.40;;;;;;;;;;4999030;23;20243;-88
2023/09/16 07:42:14;;;;;;;4.40;4.00;;;;;;;;;;4980752;28;20294;-90
2023/09/16 07:44:42;;;;;;;5.07;4.57;;;;;;;;;;4967664;28;20301;-84
2023/09/16 07:47:09;;;;;;;6.03;4.00;;;;;;;;;;4973388;28;20293;-84
2023/09/16 07:49:36;;;;;;;4.90;4.40;;;;;;;;;;4988404;28;20240;-86
2023/09/16 07:52:03;;;;;;;5.07;3.87;;;;;;;;;;4969979;28;20240;-87
2023/09/16 07:54:31;;;;;;;6.90;3.80;;;;;;;;;;4971883;28;20228;-88
2023/09/16 07:56:58;;;;;;;5.53;3.83;;;;;;;;;;4978825;28;20673;-87
2023/09/16 07:59:27;;;;;;;6.07;4.30;;;;;;;;;;4977698;28;20232;-86
2023/09/16 08:01:54;;;;;;;4.40;4.00;;;;;;;;;;4988636;28;20576;-86
2023/09/16 08:04:21;;;;;;;3.85;3.45;;;;;;;;;;4983837;28;20197;-87
2023/09/16 08:06:49;;;;;;;4.20;3.83;;;;;;;;;;4979218;28;20209;-86
2023/09/16 08:09:17;;;;;;;6.03;4.30;;;;;;;;;;4975984;28;20232;-87
2023/09/16 08:11:44;;;;;;;5.40;4.10;;;;;;;;;;4974975;28;20807;-87
2023/09/16 08:14:11;;;;;;;4.47;3.58;;;;;;;;;;4973883;28;20240;-86
2023/09/16 08:16:40;;;;;;;5.25;3.70;;;;;;;;;;5039631;28;20316;-85
2023/09/16 08:19:07;;;;;;;4.57;3.25;;;;;;;;;;4987867;28;20623;-86
2023/09/16 08:21:34;;;;;;;4.80;3.60;;;;;;;;;;4975098;28;20233;-86
2023/09/16 08:24:01;;;;;;;11.75;3.50;;;;;;;;;;4972712;28;20209;-86
2023/09/16 08:26:29;;;;;;;5.15;3.28;;;;;;;;;;4979805;28;20240;-86
2023/09/16 08:28:56;;;;;;;6.43;3.58;;;;;;;;;;5075697;28;20237;-88
2023/09/16 08:31:23;;;;;;;3.58;3.28;;;;;;;;;;4988547;28;20220;-86
2023/09/16 08:33:51;;;;;;;4.53;3.60;;;;;;;;;;4974811;28;20204;-87
2023/09/16 08:36:20;;;;;;;3.50;3.20;;;;;;;;;;4973315;28;20247;-88
2023/09/16 08:38:47;;;;;;;3.60;3.30;;;;;;;;;;4973380;28;20259;-87
2023/09/16 08:41:19;;;;;;;3.50;3.20;;;;;;;;;;5053084;28;20603;-87
2023/09/16 08:43:47;;;;;;;3.60;3.30;;;;;;;;;;4970300;28;20212;-87
2023/09/16 08:46:16;;;;;;;3.35;3.05;;;;;;;;;;4975017;28;20229;-86
2023/09/16 08:48:46;;;;;;;3.40;3.10;;;;;;;;;;4976457;28;20260;-86
2023/09/16 08:51:17;;;;;;;3.45;3.15;;;;;;;;;;4977016;28;20721;-87
2023/09/16 08:53:44;;;;;;;4.93;3.35;;;;;;;;;;4971792;28;20229;-86
2023/09/16 08:56:12;;;;;;;6.05;3.50;;;;;;;;;;4973299;28;20237;-86
2023/09/16 08:58:40;;;;;;;3.47;3.05;;;;;;;;;;5028263;28;20237;-86
2023/09/16 09:01:07;;;;;;;3.28;2.97;;;;;;;;;;4997842;28;20232;-87
2023/09/16 09:03:34;;;;;;;3.70;2.95;;;;;;;;;;5002125;28;20204;-87
2023/09/16 09:06:03;;;;;;;3.30;3.00;;;;;;;;;;4972588;28;20236;-86
2023/09/16 09:08:32;;;;;;;4.75;2.92;;;;;;;;;;4978996;28;20294;-86
2023/09/16 09:11:00;;;;;;;4.78;3.10;;;;;;;;;;5046553;28;20239;-86
2023/09/16 09:13:29;;;;;;;3.30;3.08;;;;;;;;;;5022188;28;20224;-86
2023/09/16 09:16:00;;;;;;;3.20;2.90;;;;;;;;;;5048707;28;20522;-86
2023/09/16 09:18:29;;;;;;;3.42;3.00;;;;;;;;;;4982504;28;20666;-86
2023/09/16 09:20:56;;;;;;;4.78;2.83;;;;;;;;;;4986952;28;20225;-88
2023/09/16 09:23:23;;;;;;;4.32;3.42;;;;;;;;;;4973020;28;20663;-89
2023/09/16 09:25:52;;;;;;;4.10;2.90;;;;;;;;;;4972642;28;20236;-87
2023/09/16 09:28:19;;;;;;;4.72;3.28;;;;;;;;;;4972192;28;20736;-87
2023/09/16 09:30:46;;;;;;;4.18;3.20;;;;;;;;;;4971425;28;20609;-86
2023/09/16 09:33:14;;;;;;;3.47;3.17;;;;;;;;;;4972387;28;20209;-85
2023/09/16 09:35:41;;;;;;;3.15;2.95;;;;;;;;;;4970197;28;20236;-83
2023/09/16 09:38:08;;;;;;;3.72;3.05;;;;;;;;;;4970929;28;20236;-84
2023/09/16 09:40:35;;;;;;;3.70;3.40;;;;;;;;;;5054440;28;20229;-84
2023/09/16 09:43:04;;;;;;;3.35;3.05;;;;;;;;;;4998753;28;20210;-82
2023/09/16 09:45:34;;;;;;;4.32;3.47;;;;;;;;;;4980847;28;20689;-80
2023/09/16 09:48:02;;;;;;;3.03;2.83;;;;;;;;;;4998270;28;20605;-82
2023/09/16 09:50:30;;;;;;;5.22;3.25;;;;;;;;;;5025866;28;20236;-84
2023/09/16 09:52:58;;;;;;;3.03;2.83;;;;;;;;;;4957551;28;20279;-83
2023/09/16 09:55:26;;;;;;;3.50;3.20;;;;;;;;;;4969754;28;20228;-84
2023/09/16 09:57:53;;;;;;;5.00;3.55;;;;;;;;;;4991773;28;20206;-85
2023/09/16 10:00:22;;;;;;;4.00;3.60;;;;;;;;;;4990481;28;20247;-86
2023/09/16 10:02:49;;;;;;;5.18;3.22;;;;;;;;;;4985151;28;20303;-84
2023/09/16 10:05:17;;;;;;;3.80;3.50;;;;;;;;;;5030090;28;20229;-83
2023/09/16 10:07:45;;;;;;;4.10;3.63;;;;;;;;;;4973617;28;20217;-84
2023/09/16 10:10:17;;;;;;;4.75;3.50;;;;;;;;;;4962542;28;20239;-84
2023/09/16 10:12:44;;;;;;;4.10;3.63;;;;;;;;;;4971384;28;20235;-86
2023/09/16 10:15:12;;;;;;;4.70;4.30;;;;;;;;;;4971184;28;20241;-83
2023/09/16 10:17:42;;;;;;;3.58;3.28;;;;;;;;;;4982093;28;20581;-84
2023/09/16 10:20:10;;;;;;;4.45;4.05;;;;;;;;;;5073460;28;20225;-86
2023/09/16 10:22:37;;;;;;;3.83;3.40;;;;;;;;;;4975846;28;20256;-85
2023/09/16 10:25:05;;;;;;;3.58;3.20;;;;;;;;;;4964914;28;20220;-85
2023/09/16 10:27:34;;;;;;;3.85;3.22;;;;;;;;;;4971551;28;20217;-85
2023/09/16 10:30:03;;;;;;;3.42;3.13;;;;;;;;;;4971012;28;20267;-88
2023/09/16 10:32:30;;;;;;;3.28;3.00;;;;;;;;;;4971976;28;20263;-88
2023/09/16 10:35:01;;;;;;;3.10;2.90;;;;;;;;;;4971407;28;20235;-87
2023/09/16 10:37:28;;;;;;;3.30;3.00;;;;;;;;;;4971680;28;20751;-87
2023/09/16 10:39:56;;;;;;;3.72;3.33;;;;;;;;;;4971134;28;20237;-87
2023/09/16 10:42:23;;;;;;;3.75;3.42;;;;;;;;;;4975551;28;20211;-86
2023/09/16 10:44:51;;;;;;;3.35;3.08;;;;;;;;;;4974389;28;20585;-87
2023/09/16 10:47:19;;;;;;;4.30;2.95;;;;;;;;;;5017340;28;20671;-92
2023/09/16 10:49:47;;;;;;;4.68;3.47;;;;;;;;;;4971576;28;20236;-88
2023/09/16 10:52:18;;;;;;;3.88;3.40;;;;;;;;;;4969869;28;20192;-87
2023/09/16 10:54:51;;;;;;;3.42;3.15;;;;;;;;;;5030304;28;20217;-87
2023/09/16 10:57:22;;;;;;;3.60;3.30;;;;;;;;;;5042779;28;20193;-88
2023/09/16 10:59:52;;;;;;;4.80;3.13;;;;;;;;;;5035448;28;20229;-88
2023/09/16 11:02:23;;;;;;;3.53;3.20;;;;;;;;;;5024163;28;20209;-88
2023/09/16 11:04:50;;;;;;;5.72;3.20;;;;;;;;;;5017408;28;20240;-88
2023/09/16 11:07:20;;;;;;;3.42;3.13;;;;;;;;;;5050778;28;20201;-88
2023/09/16 11:09:48;;;;;;;3.88;3.50;;;;;;;;;;4972134;28;20232;-90
2023/09/16 11:12:16;;;;;;;3.45;3.22;;;;;;;;;;4973912;28;20681;-89
2023/09/16 11:14:44;;;;;;;3.67;3.35;;;;;;;;;;4985609;28;20247;-89
2023/09/16 11:17:14;;;;;;;4.47;3.00;;;;;;;;;;5076946;28;20669;-89
2023/09/16 11:19:42;;;;;;;4.25;3.20;;;;;;;;;;5067281;28;20233;-89
2023/09/16 11:22:10;;;;;;;3.40;3.10;;;;;;;;;;4974834;28;20623;-88
2023/09/16 11:24:38;;;;;;;3.50;3.20;;;;;;;;;;5065279;28;20728;-88
2023/09/16 11:27:06;;;;;;;3.45;3.15;;;;;;;;;;5052314;28;20201;-92
2023/09/16 11:29:33;;;;;;;3.33;3.10;;;;;;;;;;4981011;28;20244;-89
2023/09/16 11:32:02;;;;;;;3.33;3.08;;;;;;;;;;5039298;28;20292;-88
2023/09/16 11:34:30;;;;;;;3.50;3.20;;;;;;;;;;5033737;28;20245;-89
2023/09/16 11:36:58;;;;;;;3.45;3.15;;;;;;;;;;4994503;28;20198;-91
2023/09/16 11:39:34;;;;;;;3.88;3.38;;;;;;;;;;5079516;28;20233;-90
2023/09/16 11:42:03;;;;;;;3.60;3.30;;;;;;;;;;5077098;28;20201;-90
2023/09/16 11:44:30;;;;;;;2.90;2.70;;;;;;;;;;5076519;28;20766;-91
2023/09/16 11:46:58;;;;;;;3.83;3.15;;;;;;;;;;5076562;28;20694;-91
2023/09/16 11:49:25;;;;;;;3.88;3.10;;;;;;;;;;4994720;28;20236;-90
2023/09/16 11:51:53;;;;;;;4.47;3.10;;;;;;;;;;4974217;28;20201;-90
2023/09/16 11:54:20;;;;;;;3.65;3.28;;;;;;;;;;5017236;28;20575;-90
2023/09/16 11:56:47;;;;;;;4.07;3.15;;;;;;;;;;5016873;28;20612;-90
2023/09/16 11:59:16;;;;;;;3.83;2.85;;;;;;;;;;5005688;28;20268;-89
2023/09/16 12:01:43;;;;;;;4.75;3.20;;;;;;;;;;4983339;28;20209;-89
2023/09/16 12:04:11;;;;;;;3.17;2.97;;;;;;;;;;5047685;28;20210;-88
2023/09/16 12:06:39;;;;;;;3.30;3.10;;;;;;;;;;5077727;28;20232;-89
2023/09/16 12:09:07;;;;;;;3.22;2.92;;;;;;;;;;5031254;28;20242;-88
2023/09/16 12:11:36;;;;;;;3.50;3.22;;;;;;;;;;5049606;28;20268;-89
2023/09/16 12:14:04;;;;;;;2.85;2.65;;;;;;;;;;5034576;28;20185;-89
2023/09/16 12:16:32;;;;;;;3.95;2.80;;;;;;;;;;5034533;28;20293;-89
2023/09/16 12:18:59;;;;;;;3.05;2.85;;;;;;;;;;4986855;28;20225;-90
2023/09/16 12:21:26;;;;;;;3.92;3.15;;;;;;;;;;4993749;28;20312;-88
2023/09/16 12:23:53;;;;;;;3.35;3.05;;;;;;;;;;4973529;28;20208;-88
2023/09/16 12:26:20;;;;;;;3.17;2.92;;;;;;;;;;4973133;28;20239;-89
2023/09/16 12:28:48;;;;;;;3.83;3.42;;;;;;;;;;5016077;28;20228;-89
2023/09/16 12:31:21;;;;;;;7.40;3.10;;;;;;;;;;5016399;28;20232;-89
2023/09/16 12:33:53;;;;;;;3.95;3.00;;;;;;;;;;4977228;28;20237;-89
2023/09/16 12:36:22;;;;;;;5.20;3.08;;;;;;;;;;4974120;28;20255;-91
2023/09/16 12:38:49;;;;;;;3.17;2.90;;;;;;;;;;4974415;28;20239;-90
2023/09/16 12:41:17;;;;;;;3.30;3.00;;;;;;;;;;4974279;28;20232;-90
2023/09/16 12:43:45;;;;;;;3.72;2.90;;;;;;;;;;4973803;28;20221;-89
2023/09/16 12:46:12;;;;;;;3.75;3.05;;;;;;;;;;5075198;28;20228;-90
2023/09/16 12:48:41;;;;;;;3.13;2.78;;;;;;;;;;5029124;28;20251;-90
2023/09/16 12:51:10;;;;;;;4.55;3.00;;;;;;;;;;4974227;28;20232;-89
2023/09/16 12:53:39;;;;;;;3.50;3.20;;;;;;;;;;5016454;28;20237;-89
2023/09/16 12:56:06;;;;;;;3.28;2.60;;;;;;;;;;4973553;28;20240;-89
2023/09/16 12:58:33;;;;;;;3.00;2.80;;;;;;;;;;5058975;28;20225;-90
2023/09/16 13:01:00;;;;;;;3.22;2.55;;;;;;;;;;5039433;28;20232;-90
2023/09/16 13:03:27;;;;;;;3.53;2.88;;;;;;;;;;5033902;28;20205;-88
2023/09/16 13:05:57;;;;;;;3.42;2.70;;;;;;;;;;5018411;28;20232;-90
2023/09/16 13:08:26;;;;;;;3.70;2.90;;;;;;;;;;4973921;28;20264;-94
2023/09/16 13:10:54;;;;;;;3.42;3.13;;;;;;;;;;4976299;28;20282;-93
2023/09/16 13:13:23;;;;;;;2.75;2.42;;;;;;;;;;4980641;28;20694;-96
2023/09/16 13:15:51;;;;;;;3.38;2.80;;;;;;;;;;4976650;28;20233;-89
2023/09/16 13:18:21;;;;;;;2.78;2.58;;;;;;;;;;4976573;28;20212;-96
2023/09/16 13:29:43;;;;;;;3.03;2.83;;;;;;;;;;4985557;28;20303;-96
2023/09/16 13:32:11;;;;;;;3.03;2.65;;;;;;;;;;4994652;28;20576;-89
2023/09/16 13:34:39;;;;;;;2.85;2.65;;;;;;;;;;4976921;28;20711;-96
2023/09/16 13:37:07;;;;;;;2.92;2.63;;;;;;;;;;4980639;28;20280;-96
2023/09/16 13:39:41;;;;;;;2.60;2.40;;;;;;;;;;4979761;28;20232;-91
2023/09/16 13:42:14;;;;;;;3.80;3.42;;;;;;;;;;4968942;28;20212;-96
2023/09/16 13:44:57;;;;;;;3.45;2.45;;;;;;;;;;4964600;28;20261;-88
2023/09/16 14:01:19;;;;;;;3.95;2.42;;;;;;;;;;5148828;22;20244;-96
2023/09/16 14:03:46;;;;;;;2.65;2.30;;;;;;;;;;5006490;28;20197;-96
2023/09/16 14:06:15;;;;;;;2.78;2.42;;;;;;;;;;5017489;28;20235;-96
2023/09/16 14:08:42;;;;;;;2.72;2.53;;;;;;;;;;5000658;28;20315;-96
2023/09/16 14:11:21;;;;;;;3.35;2.50;;;;;;;;;;4989830;28;20240;-96
2023/09/16 14:13:57;;;;;;;2.80;2.30;;;;;;;;;;4987783;28;20671;-96
2023/09/16 14:16:43;;;;;;;4.07;2.45;;;;;;;;;;4986141;28;20239;-96
2023/09/16 14:19:13;;;;;;;2.58;2.22;;;;;;;;;;4994879;28;20224;-92
2023/09/16 14:24:21;;;;;;;2.33;2.20;;;;;;;;;;4980680;28;20259;-95
2023/09/16 14:26:49;;;;;;;3.60;2.10;;;;;;;;;;4981014;28;20212;-95
2023/09/16 14:29:16;;;;;;;3.05;2.10;;;;;;;;;;4980531;28;20232;-96
2023/09/16 14:31:44;;;;;;;2.22;2.03;;;;;;;;;;4980059;28;20614;-93
2023/09/16 14:34:11;;;;;;;2.20;2.10;;;;;;;;;;4980447;28;20209;-95
2023/09/16 14:36:38;;;;;;;2.40;2.20;;;;;;;;;;4981134;28;20260;-95
2023/09/16 14:39:09;;;;;;;2.40;2.20;;;;;;;;;;4981074;28;20307;-95
2023/09/16 14:41:36;;;;;;;2.63;2.42;;;;;;;;;;4980866;28;20216;-95
2023/09/16 14:44:03;;;;;;;3.00;2.15;;;;;;;;;;4980773;28;20208;-94
2023/09/16 14:46:30;;;;;;;5.82;2.30;;;;;;;;;;4980156;28;20224;-95
2023/09/16 14:48:59;;;;;;;5.35;2.30;;;;;;;;;;4980835;28;20236;-95
2023/09/16 14:51:27;;;;;;;3.08;2.10;;;;;;;;;;4980176;28;20752;-95
2023/09/16 14:53:54;;;;;;;3.97;2.20;;;;;;;;;;4980832;28;20287;-95
2023/09/16 14:56:21;;;;;;;3.13;2.40;;;;;;;;;;4980374;28;20235;-96
2023/09/16 14:58:48;;;;;;;2.75;2.55;;;;;;;;;;4980619;28;20234;-94
2023/09/16 15:01:19;;;;;;;2.60;2.40;;;;;;;;;;4980140;28;20236;-95
2023/09/16 15:03:47;;;;;;;2.40;2.20;;;;;;;;;;4980847;28;20264;-95
2023/09/16 15:06:17;;;;;;;2.70;2.50;;;;;;;;;;4980157;28;20718;-95
2023/09/16 15:08:44;;;;;;;5.90;2.35;;;;;;;;;;4980771;28;20229;-96
2023/09/16 15:11:11;;;;;;;2.38;2.13;;;;;;;;;;4980061;28;20251;-95
2023/09/16 15:13:38;;;;;;;2.80;2.60;;;;;;;;;;4980588;28;20204;-95